createdAt,value
2017-03-28T00:00:52.859Z,0
2017-03-28T00:01:51.948Z,0
2017-03-28T00:02:53.161Z,0
2017-03-28T00:03:52.325Z,0
2017-03-28T00:04:52.348Z,0
2017-03-28T00:05:52.998Z,0
2017-03-28T00:06:52.732Z,0
2017-03-28T00:07:52.675Z,0
2017-03-28T00:08:53.082Z,0
2017-03-28T00:09:53.111Z,0
2017-03-28T00:10:53.142Z,0
2017-03-28T00:11:53.173Z,0
2017-03-28T00:12:52.836Z,0
2017-03-28T00:13:53.255Z,0
2017-03-28T00:14:53.255Z,0
2017-03-28T00:15:52.979Z,0
2017-03-28T00:16:52.998Z,0
2017-03-28T00:17:53.592Z,0
2017-03-28T00:18:53.373Z,0
2017-03-28T00:19:53.387Z,0
2017-03-28T00:20:53.107Z,0
2017-03-28T00:21:53.136Z,0
2017-03-28T00:22:53.731Z,0
2017-03-28T00:23:53.505Z,0
2017-03-28T00:24:53.211Z,0
2017-03-28T00:25:53.255Z,0
2017-03-28T00:26:53.586Z,0
2017-03-28T00:27:53.880Z,0
2017-03-28T00:28:53.019Z,0
2017-03-28T00:29:53.356Z,0
2017-03-28T00:30:53.694Z,0
2017-03-28T00:31:53.104Z,0
2017-03-28T00:32:54.012Z,0
2017-03-28T00:33:53.470Z,0
2017-03-28T00:34:53.499Z,0
2017-03-28T00:35:53.223Z,0
2017-03-28T00:36:53.877Z,0
2017-03-28T00:37:54.161Z,0
2017-03-28T00:38:53.609Z,0
2017-03-28T00:39:53.634Z,0
2017-03-28T00:40:53.366Z,0
2017-03-28T00:41:53.691Z,0
2017-03-28T00:42:53.983Z,0
2017-03-28T00:43:54.070Z,0
2017-03-28T00:44:54.099Z,0
2017-03-28T00:45:54.130Z,0
2017-03-28T00:46:54.143Z,0
2017-03-28T00:47:54.120Z,0
2017-03-28T00:48:54.213Z,0
2017-03-28T00:49:54.234Z,0
2017-03-28T00:50:53.630Z,0
2017-03-28T00:51:53.970Z,0
2017-03-28T00:52:54.260Z,0
2017-03-28T00:53:54.030Z,0
2017-03-28T00:54:54.060Z,0
2017-03-28T00:55:54.089Z,0
2017-03-28T00:56:54.427Z,0
2017-03-28T00:57:54.402Z,0
2017-03-28T00:58:54.169Z,0
2017-03-28T00:59:54.509Z,0
2017-03-28T01:00:54.222Z,0
2017-03-28T01:01:54.567Z,0
2017-03-28T01:02:54.284Z,0
2017-03-28T01:03:54.301Z,0
2017-03-28T01:04:54.654Z,0
2017-03-28T01:05:54.362Z,0
2017-03-28T01:06:54.706Z,0
2017-03-28T01:07:54.740Z,0
2017-03-28T01:08:54.761Z,0
2017-03-28T01:09:54.186Z,0
2017-03-28T01:10:54.509Z,0
2017-03-28T01:11:54.842Z,0
2017-03-28T01:12:54.567Z,0
2017-03-28T01:13:54.852Z,0
2017-03-28T01:14:54.614Z,0
2017-03-28T01:15:54.961Z,0
2017-03-28T01:16:54.368Z,0
2017-03-28T01:17:54.699Z,0
2017-03-28T01:18:54.984Z,0
2017-03-28T01:19:54.753Z,0
2017-03-28T01:20:54.785Z,0
2017-03-28T01:21:54.807Z,0
2017-03-28T01:22:54.843Z,0
2017-03-28T01:23:54.804Z,0
2017-03-28T01:24:55.225Z,0
2017-03-28T01:25:55.233Z,0
2017-03-28T01:26:54.643Z,0
2017-03-28T01:27:55.290Z,0
2017-03-28T01:28:55.271Z,0
2017-03-28T01:29:55.045Z,0
2017-03-28T01:30:55.065Z,0
2017-03-28T01:31:55.086Z,0
2017-03-28T01:32:55.119Z,0
2017-03-28T01:33:55.708Z,0
2017-03-28T01:34:55.488Z,0
2017-03-28T01:35:55.515Z,0
2017-03-28T01:36:55.537Z,0
2017-03-28T01:37:55.572Z,0
2017-03-28T01:38:55.544Z,0
2017-03-28T01:39:55.629Z,0
2017-03-28T01:40:55.656Z,0
2017-03-28T01:41:55.682Z,0
2017-03-28T01:42:55.702Z,0
2017-03-28T01:43:55.993Z,0
2017-03-28T01:44:55.457Z,0
2017-03-28T01:45:55.477Z,0
2017-03-28T01:46:55.812Z,0
2017-03-28T01:47:55.538Z,0
2017-03-28T01:48:55.820Z,0
2017-03-28T01:49:55.912Z,0
2017-03-28T01:50:55.300Z,0
2017-03-28T01:51:55.643Z,0
2017-03-28T01:52:55.678Z,0
2017-03-28T01:53:56.271Z,0
2017-03-28T01:54:56.044Z,0
2017-03-28T01:55:55.755Z,0
2017-03-28T01:56:56.100Z,0
2017-03-28T01:57:55.812Z,0
2017-03-28T01:58:56.399Z,0
2017-03-28T01:59:56.180Z,0
2017-03-28T02:00:56.205Z,0
2017-03-28T02:01:55.920Z,0
2017-03-28T02:02:55.634Z,0
2017-03-28T02:03:56.234Z,0
2017-03-28T02:04:56.311Z,0
2017-03-28T02:05:56.030Z,0
2017-03-28T02:06:56.069Z,0
2017-03-28T02:07:56.081Z,0
2017-03-28T02:08:56.359Z,0
2017-03-28T02:09:56.140Z,0
2017-03-28T02:10:56.171Z,0
2017-03-28T02:11:56.200Z,0
2017-03-28T02:12:56.257Z,0
2017-03-28T02:13:56.514Z,0
2017-03-28T02:14:56.596Z,0
2017-03-28T02:15:56.615Z,0
2017-03-28T02:16:56.332Z,0
2017-03-28T02:17:56.367Z,0
2017-03-28T02:18:56.959Z,0
2017-03-28T02:19:56.111Z,0
2017-03-28T02:20:56.443Z,0
2017-03-28T02:21:56.156Z,0
2017-03-28T02:22:56.501Z,0
2017-03-28T02:23:57.106Z,0
2017-03-28T02:24:56.243Z,0
2017-03-28T02:25:56.293Z,0
2017-03-28T02:26:56.603Z,0
2017-03-28T02:27:56.962Z,0
2017-03-28T02:28:57.246Z,0
2017-03-28T02:29:57.007Z,0
2017-03-28T02:30:57.032Z,0
2017-03-28T02:31:56.432Z,0
2017-03-28T02:32:56.460Z,0
2017-03-28T02:33:57.362Z,0
2017-03-28T02:34:56.514Z,0
2017-03-28T02:35:56.539Z,0
2017-03-28T02:36:56.568Z,0
2017-03-28T02:37:56.918Z,0
2017-03-28T02:38:56.874Z,0
2017-03-28T02:39:57.290Z,0
2017-03-28T02:40:57.303Z,0
2017-03-28T02:41:57.020Z,0
2017-03-28T02:42:57.365Z,0
2017-03-28T02:43:57.325Z,0
2017-03-28T02:44:57.105Z,0
2017-03-28T02:45:57.123Z,0
2017-03-28T02:46:57.471Z,0
2017-03-28T02:47:57.186Z,0
2017-03-28T02:48:57.158Z,0
2017-03-28T02:49:57.250Z,0
2017-03-28T02:50:56.951Z,0
2017-03-28T02:51:57.289Z,0
2017-03-28T02:52:57.319Z,0
2017-03-28T02:53:57.913Z,0
2017-03-28T02:54:57.694Z,0
2017-03-28T02:55:57.407Z,0
2017-03-28T02:56:57.752Z,0
2017-03-28T02:57:57.452Z,0
2017-03-28T02:58:57.745Z,0
2017-03-28T02:59:57.518Z,0
2017-03-28T03:00:57.862Z,0
2017-03-28T03:01:57.260Z,0
2017-03-28T03:02:57.601Z,0
2017-03-28T03:03:58.188Z,0
2017-03-28T03:04:57.970Z,0
2017-03-28T03:05:57.995Z,0
2017-03-28T03:06:57.715Z,0
2017-03-28T03:07:57.736Z,0
2017-03-28T03:08:58.338Z,0
2017-03-28T03:09:58.103Z,0
2017-03-28T03:10:57.875Z,0
2017-03-28T03:11:57.531Z,0
2017-03-28T03:12:57.563Z,0
2017-03-28T03:13:58.503Z,0
2017-03-28T03:14:58.246Z,0
2017-03-28T03:15:57.961Z,0
2017-03-28T03:16:57.983Z,0
2017-03-28T03:17:57.710Z,0
2017-03-28T03:18:57.724Z,0
2017-03-28T03:19:58.397Z,0
2017-03-28T03:20:58.409Z,0
2017-03-28T03:21:58.435Z,0
2017-03-28T03:22:58.463Z,0
2017-03-28T03:23:58.476Z,0
2017-03-28T03:24:58.513Z,0
2017-03-28T03:25:58.530Z,0
2017-03-28T03:26:58.266Z,0
2017-03-28T03:27:58.607Z,0
2017-03-28T03:28:58.625Z,0
2017-03-28T03:29:58.653Z,0
2017-03-28T03:30:58.358Z,0
2017-03-28T03:31:58.709Z,0
2017-03-28T03:32:58.108Z,0
2017-03-28T03:33:58.143Z,0
2017-03-28T03:34:58.168Z,0
2017-03-28T03:35:58.185Z,0
2017-03-28T03:36:58.847Z,0
2017-03-28T03:37:58.562Z,0
2017-03-28T03:38:58.583Z,0
2017-03-28T03:39:58.924Z,0
2017-03-28T03:40:58.953Z,0
2017-03-28T03:41:58.709Z,0
2017-03-28T03:42:58.691Z,0
2017-03-28T03:43:58.719Z,0
2017-03-28T03:44:59.053Z,0
2017-03-28T03:45:59.088Z,0
2017-03-28T03:46:58.798Z,0
2017-03-28T03:47:58.517Z,0
2017-03-28T03:48:59.176Z,0
2017-03-28T03:49:58.883Z,0
2017-03-28T03:50:58.608Z,0
2017-03-28T03:51:59.253Z,0
2017-03-28T03:52:59.274Z,0
2017-03-28T03:53:58.990Z,0
2017-03-28T03:54:59.357Z,0
2017-03-28T03:55:59.048Z,0
2017-03-28T03:56:59.077Z,0
2017-03-28T03:57:59.409Z,0
2017-03-28T03:58:59.446Z,0
2017-03-28T03:59:59.474Z,0
2017-03-28T04:00:59.499Z,0
2017-03-28T04:01:59.520Z,0
2017-03-28T04:02:59.557Z,0
2017-03-28T04:03:59.267Z,0
2017-03-28T04:04:59.608Z,0
2017-03-28T04:05:59.635Z,0
2017-03-28T04:06:59.669Z,0
2017-03-28T04:07:58.758Z,0
2017-03-28T04:08:59.402Z,0
2017-03-28T04:09:59.751Z,0
2017-03-28T04:10:59.456Z,0
2017-03-28T04:11:59.796Z,0
2017-03-28T04:12:59.522Z,0
2017-03-28T04:13:59.545Z,0
2017-03-28T04:14:59.263Z,0
2017-03-28T04:15:59.911Z,0
2017-03-28T04:16:59.624Z,0
2017-03-28T04:17:59.961Z,0
2017-03-28T04:18:59.996Z,0
2017-03-28T04:20:00.010Z,0
2017-03-28T04:20:59.731Z,0
2017-03-28T04:22:00.072Z,0
2017-03-28T04:22:59.787Z,0
2017-03-28T04:24:00.121Z,0
2017-03-28T04:25:00.154Z,0
2017-03-28T04:25:59.874Z,0
2017-03-28T04:26:59.895Z,0
2017-03-28T04:27:59.929Z,0
2017-03-28T04:29:00.277Z,0
2017-03-28T04:30:00.276Z,0
2017-03-28T04:30:59.695Z,0
2017-03-28T04:32:00.030Z,0
2017-03-28T04:33:00.367Z,0
2017-03-28T04:34:00.399Z,0
2017-03-28T04:35:00.420Z,0
2017-03-28T04:35:59.822Z,0
2017-03-28T04:37:00.480Z,0
2017-03-28T04:38:00.207Z,0
2017-03-28T04:39:00.535Z,0
2017-03-28T04:40:00.573Z,0
2017-03-28T04:41:00.582Z,0
2017-03-28T04:42:00.627Z,0
2017-03-28T04:43:00.644Z,0
2017-03-28T04:44:00.678Z,0
2017-03-28T04:45:00.073Z,0
2017-03-28T04:46:00.090Z,0
2017-03-28T04:47:00.754Z,0
2017-03-28T04:48:00.471Z,0
2017-03-28T04:49:00.196Z,0
2017-03-28T04:50:00.525Z,0
2017-03-28T04:51:00.849Z,0
2017-03-28T04:52:00.566Z,0
2017-03-28T04:53:00.915Z,0
2017-03-28T04:54:00.944Z,0
2017-03-28T04:55:00.661Z,0
2017-03-28T04:56:00.680Z,4
2017-03-28T04:57:01.020Z,0
2017-03-28T04:58:01.058Z,0
2017-03-28T04:59:00.774Z,4
2017-03-28T05:00:01.362Z,0
2017-03-28T05:01:00.820Z,4
2017-03-28T05:02:01.153Z,8
2017-03-28T05:03:01.191Z,8
2017-03-28T05:04:01.212Z,4
2017-03-28T05:05:01.495Z,8
2017-03-28T05:06:01.264Z,12
2017-03-28T05:07:00.674Z,12
2017-03-28T05:08:01.326Z,12
2017-03-28T05:09:01.346Z,16
2017-03-28T05:10:01.319Z,16
2017-03-28T05:11:00.768Z,20
2017-03-28T05:12:01.433Z,24
2017-03-28T05:13:01.149Z,28
2017-03-28T05:14:01.240Z,32
2017-03-28T05:15:01.453Z,32
2017-03-28T05:16:01.239Z,40
2017-03-28T05:17:01.254Z,40
2017-03-28T05:18:01.598Z,48
2017-03-28T05:19:01.314Z,52
2017-03-28T05:20:01.587Z,56
2017-03-28T05:21:01.356Z,64
2017-03-28T05:22:01.706Z,68
2017-03-28T05:23:01.422Z,76
2017-03-28T05:24:01.762Z,80
2017-03-28T05:25:01.723Z,88
2017-03-28T05:26:01.496Z,92
2017-03-28T05:27:01.217Z,100
2017-03-28T05:28:01.865Z,108
2017-03-28T05:29:01.895Z,116
2017-03-28T05:30:02.176Z,124
2017-03-28T05:31:01.937Z,132
2017-03-28T05:32:01.981Z,140
2017-03-28T05:33:02.039Z,144
2017-03-28T05:34:02.038Z,152
2017-03-28T05:35:02.314Z,160
2017-03-28T05:36:01.776Z,168
2017-03-28T05:37:02.112Z,176
2017-03-28T05:38:02.150Z,184
2017-03-28T05:39:01.545Z,188
2017-03-28T05:40:02.450Z,196
2017-03-28T05:41:01.607Z,204
2017-03-28T05:42:01.619Z,212
2017-03-28T05:43:01.973Z,220
2017-03-28T05:44:02.001Z,228
2017-03-28T05:45:02.274Z,236
2017-03-28T05:46:02.042Z,244
2017-03-28T05:47:02.079Z,248
2017-03-28T05:48:02.101Z,256
2017-03-28T05:49:02.449Z,264
2017-03-28T05:50:02.719Z,272
2017-03-28T05:51:02.496Z,280
2017-03-28T05:52:02.524Z,288
2017-03-28T05:53:02.564Z,296
2017-03-28T05:54:02.269Z,304
2017-03-28T05:55:02.849Z,312
2017-03-28T05:56:02.008Z,320
2017-03-28T05:57:02.652Z,324
2017-03-28T05:58:02.386Z,332
2017-03-28T05:59:02.726Z,340
2017-03-28T06:00:02.362Z,348
2017-03-28T06:01:02.770Z,352
2017-03-28T06:02:02.801Z,356
2017-03-28T06:03:02.828Z,364
2017-03-28T06:04:02.849Z,368
2017-03-28T06:05:02.823Z,376
2017-03-28T06:06:02.598Z,380
2017-03-28T06:07:02.946Z,384
2017-03-28T06:08:02.976Z,396
2017-03-28T06:09:02.372Z,400
2017-03-28T06:10:03.265Z,404
2017-03-28T06:11:02.731Z,412
2017-03-28T06:12:03.070Z,420
2017-03-28T06:13:02.835Z,424
2017-03-28T06:14:03.141Z,432
2017-03-28T06:15:03.405Z,436
2017-03-28T06:16:02.904Z,440
2017-03-28T06:17:02.891Z,448
2017-03-28T06:18:03.243Z,452
2017-03-28T06:19:02.638Z,452
2017-03-28T06:20:02.984Z,460
2017-03-28T06:21:03.320Z,468
2017-03-28T06:22:02.723Z,472
2017-03-28T06:23:03.376Z,476
2017-03-28T06:24:03.401Z,480
2017-03-28T06:25:03.429Z,484
2017-03-28T06:26:03.444Z,488
2017-03-28T06:27:02.858Z,492
2017-03-28T06:28:03.202Z,496
2017-03-28T06:29:02.920Z,500
2017-03-28T06:30:03.568Z,504
2017-03-28T06:31:03.588Z,508
2017-03-28T06:32:02.987Z,512
2017-03-28T06:33:03.655Z,516
2017-03-28T06:34:03.676Z,520
2017-03-28T06:35:03.392Z,528
2017-03-28T06:36:03.416Z,532
2017-03-28T06:37:03.450Z,532
2017-03-28T06:38:03.470Z,540
2017-03-28T06:39:03.204Z,544
2017-03-28T06:40:03.852Z,548
2017-03-28T06:41:03.871Z,548
2017-03-28T06:42:03.881Z,556
2017-03-28T06:43:03.928Z,556
2017-03-28T06:44:03.960Z,560
2017-03-28T06:45:03.355Z,564
2017-03-28T06:46:04.265Z,568
2017-03-28T06:47:04.038Z,572
2017-03-28T06:48:04.058Z,576
2017-03-28T06:49:04.090Z,580
2017-03-28T06:50:04.117Z,584
2017-03-28T06:51:04.084Z,588
2017-03-28T06:52:04.166Z,588
2017-03-28T06:53:04.198Z,592
2017-03-28T06:54:04.235Z,600
2017-03-28T06:55:04.253Z,600
2017-03-28T06:56:04.529Z,608
2017-03-28T06:57:03.676Z,608
2017-03-28T06:58:04.343Z,612
2017-03-28T06:59:04.366Z,616
2017-03-28T07:00:04.391Z,616
2017-03-28T07:01:04.349Z,620
2017-03-28T07:02:04.129Z,628
2017-03-28T07:03:04.170Z,628
2017-03-28T07:04:04.190Z,636
2017-03-28T07:05:04.526Z,636
2017-03-28T07:06:04.504Z,640
2017-03-28T07:07:04.592Z,648
2017-03-28T07:08:04.617Z,648
2017-03-28T07:09:04.634Z,656
2017-03-28T07:10:04.685Z,660
2017-03-28T07:11:04.943Z,664
2017-03-28T07:12:04.749Z,672
2017-03-28T07:13:04.441Z,676
2017-03-28T07:14:04.462Z,684
2017-03-28T07:15:04.490Z,688
2017-03-28T07:16:04.771Z,696
2017-03-28T07:17:04.235Z,704
2017-03-28T07:18:04.577Z,708
2017-03-28T07:19:04.946Z,712
2017-03-28T07:20:04.942Z,724
2017-03-28T07:21:04.911Z,728
2017-03-28T07:22:04.684Z,736
2017-03-28T07:23:04.425Z,744
2017-03-28T07:24:05.054Z,756
2017-03-28T07:25:05.094Z,776
2017-03-28T07:26:05.362Z,808
2017-03-28T07:27:04.512Z,952
2017-03-28T07:28:05.158Z,1284
2017-03-28T07:29:05.199Z,1876
2017-03-28T07:30:05.218Z,2940
2017-03-28T07:31:05.497Z,4012
2017-03-28T07:32:04.652Z,4544
2017-03-28T07:33:05.294Z,4540
2017-03-28T07:34:05.329Z,4560
2017-03-28T07:35:05.050Z,4700
2017-03-28T07:36:05.635Z,4840
2017-03-28T07:37:04.783Z,5028
2017-03-28T07:38:05.140Z,5288
2017-03-28T07:39:05.477Z,5548
2017-03-28T07:40:05.190Z,5616
2017-03-28T07:41:05.779Z,5516
2017-03-28T07:42:05.254Z,5392
2017-03-28T07:43:05.592Z,5220
2017-03-28T07:44:05.605Z,4900
2017-03-28T07:45:05.334Z,4220
2017-03-28T07:46:05.293Z,3444
2017-03-28T07:47:05.730Z,3124
2017-03-28T07:48:05.731Z,3092
2017-03-28T07:49:05.460Z,3072
2017-03-28T07:50:05.478Z,3012
2017-03-28T07:51:06.066Z,2956
2017-03-28T07:52:05.532Z,2916
2017-03-28T07:53:05.867Z,2828
2017-03-28T07:54:05.908Z,2700
2017-03-28T07:55:05.946Z,2552
2017-03-28T07:56:05.581Z,2388
2017-03-28T07:57:05.986Z,2228
2017-03-28T07:58:05.704Z,2084
2017-03-28T07:59:05.740Z,1968
2017-03-28T08:00:05.769Z,1860
2017-03-28T08:01:05.199Z,1764
2017-03-28T08:02:06.130Z,1684
2017-03-28T08:03:06.165Z,1628
2017-03-28T08:04:05.883Z,1584
2017-03-28T08:05:06.222Z,1556
2017-03-28T08:06:06.254Z,1528
2017-03-28T08:07:06.282Z,1500
2017-03-28T08:08:06.303Z,1456
2017-03-28T08:09:05.708Z,1400
2017-03-28T08:10:06.049Z,1344
2017-03-28T08:11:06.077Z,1304
2017-03-28T08:12:06.431Z,1264
2017-03-28T08:13:06.463Z,1228
2017-03-28T08:14:06.483Z,1196
2017-03-28T08:15:06.521Z,1172
2017-03-28T08:16:05.917Z,1152
2017-03-28T08:17:06.823Z,1132
2017-03-28T08:18:06.614Z,1120
2017-03-28T08:19:06.640Z,1104
2017-03-28T08:20:06.031Z,1096
2017-03-28T08:21:06.686Z,1088
2017-03-28T08:22:06.645Z,1080
2017-03-28T08:23:06.435Z,1076
2017-03-28T08:24:06.453Z,1080
2017-03-28T08:25:06.809Z,1080
2017-03-28T08:26:06.824Z,1076
2017-03-28T08:27:07.114Z,1076
2017-03-28T08:28:06.885Z,1076
2017-03-28T08:29:06.599Z,1072
2017-03-28T08:30:06.948Z,1076
2017-03-28T08:31:06.973Z,1084
2017-03-28T08:32:06.966Z,1084
2017-03-28T08:33:06.404Z,1084
2017-03-28T08:34:07.059Z,1088
2017-03-28T08:35:06.461Z,1092
2017-03-28T08:36:07.113Z,1092
2017-03-28T08:37:07.389Z,1104
2017-03-28T08:38:06.858Z,1112
2017-03-28T08:39:07.200Z,1124
2017-03-28T08:40:06.917Z,1148
2017-03-28T08:41:07.257Z,1156
2017-03-28T08:42:07.236Z,1168
2017-03-28T08:43:06.993Z,1176
2017-03-28T08:44:07.352Z,1192
2017-03-28T08:45:07.387Z,1216
2017-03-28T08:46:06.795Z,1240
2017-03-28T08:47:07.411Z,1284
2017-03-28T08:48:07.455Z,1356
2017-03-28T08:49:07.490Z,1532
2017-03-28T08:50:07.516Z,1840
2017-03-28T08:51:07.544Z,2092
2017-03-28T08:52:07.513Z,2252
2017-03-28T08:53:07.601Z,2480
2017-03-28T08:54:07.627Z,2688
2017-03-28T08:55:07.022Z,2776
2017-03-28T08:56:07.053Z,2748
2017-03-28T08:57:07.654Z,2616
2017-03-28T08:58:07.747Z,2476
2017-03-28T08:59:07.771Z,2428
2017-03-28T09:00:07.790Z,2420
2017-03-28T09:01:07.515Z,2364
2017-03-28T09:02:07.800Z,2280
2017-03-28T09:03:07.876Z,2236
2017-03-28T09:04:07.911Z,2232
2017-03-28T09:05:07.946Z,2236
2017-03-28T09:06:07.968Z,2244
2017-03-28T09:07:07.931Z,2256
2017-03-28T09:08:07.706Z,2256
2017-03-28T09:09:08.054Z,2244
2017-03-28T09:10:08.086Z,2216
2017-03-28T09:11:07.798Z,2176
2017-03-28T09:12:07.192Z,2128
2017-03-28T09:13:07.853Z,2076
2017-03-28T09:14:08.192Z,2024
2017-03-28T09:15:08.218Z,1968
2017-03-28T09:16:07.929Z,1904
2017-03-28T09:17:08.275Z,1844
2017-03-28T09:18:08.308Z,1796
2017-03-28T09:19:08.333Z,1764
2017-03-28T09:20:07.738Z,1740
2017-03-28T09:21:08.390Z,1720
2017-03-28T09:22:08.120Z,1708
2017-03-28T09:23:08.461Z,1704
2017-03-28T09:24:08.170Z,1700
2017-03-28T09:25:07.890Z,1704
2017-03-28T09:26:08.227Z,1704
2017-03-28T09:27:07.944Z,1708
2017-03-28T09:28:08.853Z,1708
2017-03-28T09:29:08.633Z,1716
2017-03-28T09:30:08.346Z,1728
2017-03-28T09:31:08.375Z,1728
2017-03-28T09:32:08.091Z,1724
2017-03-28T09:33:08.681Z,1724
2017-03-28T09:34:08.461Z,1716
2017-03-28T09:35:08.797Z,1712
2017-03-28T09:36:08.194Z,1708
2017-03-28T09:37:08.859Z,1696
2017-03-28T09:38:09.140Z,1684
2017-03-28T09:39:08.916Z,1680
2017-03-28T09:40:08.944Z,1672
2017-03-28T09:41:08.681Z,1664
2017-03-28T09:42:09.008Z,1664
2017-03-28T09:43:08.970Z,1656
2017-03-28T09:44:08.747Z,1656
2017-03-28T09:45:09.083Z,1648
2017-03-28T09:46:08.806Z,1648
2017-03-28T09:47:08.839Z,1640
2017-03-28T09:48:09.419Z,1636
2017-03-28T09:49:08.887Z,1636
2017-03-28T09:50:08.921Z,1632
2017-03-28T09:51:08.950Z,1636
2017-03-28T09:52:08.982Z,1640
2017-03-28T09:53:09.263Z,1640
2017-03-28T09:54:08.724Z,1644
2017-03-28T09:55:09.065Z,1648
2017-03-28T09:56:09.096Z,1652
2017-03-28T09:57:08.806Z,1660
2017-03-28T09:58:09.698Z,1668
2017-03-28T09:59:08.863Z,1676
2017-03-28T10:00:09.527Z,1684
2017-03-28T10:01:09.232Z,1688
2017-03-28T10:02:09.262Z,1692
2017-03-28T10:03:09.550Z,1700
2017-03-28T10:04:09.639Z,1704
2017-03-28T10:05:09.036Z,1712
2017-03-28T10:06:08.785Z,1724
2017-03-28T10:07:09.429Z,1752
2017-03-28T10:08:10.131Z,1780
2017-03-28T10:09:09.771Z,1812
2017-03-28T10:10:09.502Z,1840
2017-03-28T10:11:09.832Z,1872
2017-03-28T10:12:09.551Z,1904
2017-03-28T10:13:09.833Z,1940
2017-03-28T10:14:09.594Z,1972
2017-03-28T10:15:09.948Z,1996
2017-03-28T10:16:09.672Z,2024
2017-03-28T10:17:10.002Z,2044
2017-03-28T10:18:10.292Z,2064
2017-03-28T10:19:10.058Z,2096
2017-03-28T10:20:10.103Z,2132
2017-03-28T10:21:09.807Z,2172
2017-03-28T10:22:09.837Z,2212
2017-03-28T10:23:10.440Z,2240
2017-03-28T10:24:09.582Z,2280
2017-03-28T10:25:09.939Z,2304
2017-03-28T10:26:09.948Z,2324
2017-03-28T10:27:10.303Z,2356
2017-03-28T10:28:10.260Z,2396
2017-03-28T10:29:10.350Z,2444
2017-03-28T10:30:10.068Z,2472
2017-03-28T10:31:09.856Z,2500
2017-03-28T10:32:10.116Z,2508
2017-03-28T10:33:10.412Z,2524
2017-03-28T10:34:10.506Z,2548
2017-03-28T10:35:10.215Z,2548
2017-03-28T10:36:10.551Z,2560
2017-03-28T10:37:10.275Z,2580
2017-03-28T10:38:10.860Z,2588
2017-03-28T10:39:10.645Z,2584
2017-03-28T10:40:10.350Z,2588
2017-03-28T10:41:10.710Z,2588
2017-03-28T10:42:10.732Z,2608
2017-03-28T10:43:11.016Z,2632
2017-03-28T10:44:10.161Z,2680
2017-03-28T10:45:10.194Z,2740
2017-03-28T10:46:10.843Z,2772
2017-03-28T10:47:10.564Z,2784
2017-03-28T10:48:10.284Z,2800
2017-03-28T10:49:10.627Z,2804
2017-03-28T10:50:10.651Z,2820
2017-03-28T10:51:10.379Z,2832
2017-03-28T10:52:11.025Z,2836
2017-03-28T10:53:10.733Z,2836
2017-03-28T10:54:10.777Z,2840
2017-03-28T10:55:11.106Z,2848
2017-03-28T10:56:10.505Z,2856
2017-03-28T10:57:11.164Z,2868
2017-03-28T10:58:10.583Z,2884
2017-03-28T10:59:10.602Z,2904
2017-03-28T11:00:10.945Z,2920
2017-03-28T11:01:11.283Z,2932
2017-03-28T11:02:11.307Z,2944
2017-03-28T11:03:11.032Z,2952
2017-03-28T11:04:11.070Z,2960
2017-03-28T11:05:10.778Z,2984
2017-03-28T11:06:11.425Z,3036
2017-03-28T11:07:11.150Z,3100
2017-03-28T11:08:11.179Z,3184
2017-03-28T11:09:11.144Z,3248
2017-03-28T11:10:11.541Z,3332
2017-03-28T11:11:11.269Z,3624
2017-03-28T11:12:11.606Z,3920
2017-03-28T11:13:11.316Z,4032
2017-03-28T11:14:11.621Z,4096
2017-03-28T11:15:11.377Z,4208
2017-03-28T11:16:11.103Z,4348
2017-03-28T11:17:11.755Z,4544
2017-03-28T11:18:11.793Z,4672
2017-03-28T11:19:12.055Z,4784
2017-03-28T11:20:11.845Z,4876
2017-03-28T11:21:11.873Z,4984
2017-03-28T11:22:11.593Z,5040
2017-03-28T11:23:11.622Z,5112
2017-03-28T11:24:12.208Z,5184
2017-03-28T11:25:11.988Z,5240
2017-03-28T11:26:12.027Z,5300
2017-03-28T11:27:12.053Z,5344
2017-03-28T11:28:11.458Z,5392
2017-03-28T11:29:12.368Z,5436
2017-03-28T11:30:12.131Z,5464
2017-03-28T11:31:11.860Z,5504
2017-03-28T11:32:11.878Z,5552
2017-03-28T11:33:12.220Z,5600
2017-03-28T11:34:12.200Z,5648
2017-03-28T11:35:11.972Z,5720
2017-03-28T11:36:12.317Z,5764
2017-03-28T11:37:12.033Z,5820
2017-03-28T11:38:12.056Z,5880
2017-03-28T11:39:12.034Z,5912
2017-03-28T11:40:12.436Z,5956
2017-03-28T11:41:12.497Z,6044
2017-03-28T11:42:12.489Z,6120
2017-03-28T11:43:12.532Z,6208
2017-03-28T11:44:12.810Z,6248
2017-03-28T11:45:12.584Z,6296
2017-03-28T11:46:12.613Z,6448
2017-03-28T11:47:12.013Z,6576
2017-03-28T11:48:12.670Z,6776
2017-03-28T11:49:12.638Z,6980
2017-03-28T11:50:12.423Z,7248
2017-03-28T11:51:12.753Z,7740
2017-03-28T11:52:12.482Z,8184
2017-03-28T11:53:12.814Z,10412
2017-03-28T11:54:13.122Z,14012
2017-03-28T11:55:12.564Z,14480
2017-03-28T11:56:12.280Z,14844
2017-03-28T11:57:12.940Z,16940
2017-03-28T11:58:12.657Z,18112
2017-03-28T11:59:12.618Z,18400
2017-03-28T12:00:12.720Z,19968
2017-03-28T12:01:13.059Z,29728
2017-03-28T12:02:13.080Z,51136
2017-03-28T12:03:12.815Z,60864
2017-03-28T12:04:13.093Z,60448
2017-03-28T12:05:13.170Z,56192
2017-03-28T12:06:13.204Z,55264
2017-03-28T12:07:13.239Z,56672
2017-03-28T12:08:13.273Z,58048
2017-03-28T12:09:13.628Z,58528
2017-03-28T12:10:13.338Z,58240
2017-03-28T12:11:13.359Z,57984
2017-03-28T12:12:13.396Z,57152
2017-03-28T12:13:13.422Z,57760
2017-03-28T12:14:13.462Z,58848
2017-03-28T12:15:13.491Z,62368
2017-03-28T12:16:13.698Z,66144
2017-03-28T12:17:12.932Z,70784
2017-03-28T12:18:13.593Z,77664
2017-03-28T12:19:13.305Z,84096
2017-03-28T12:20:13.657Z,90720
2017-03-28T12:21:13.686Z,103104
2017-03-28T12:22:13.410Z,102272
2017-03-28T12:23:13.445Z,88352
2017-03-28T12:24:13.777Z,69600
2017-03-28T12:25:13.814Z,53760
2017-03-28T12:26:13.835Z,44608
2017-03-28T12:27:13.883Z,36256
2017-03-28T12:28:13.913Z,30880
2017-03-28T12:29:13.929Z,28672
2017-03-28T12:30:13.662Z,28544
2017-03-28T12:31:13.688Z,30240
2017-03-28T12:32:13.727Z,31168
2017-03-28T12:33:13.768Z,31264
2017-03-28T12:34:13.484Z,30880
2017-03-28T12:35:14.388Z,30016
2017-03-28T12:36:13.552Z,31232
2017-03-28T12:37:14.207Z,32896
2017-03-28T12:38:14.243Z,33728
2017-03-28T12:39:14.269Z,36160
2017-03-28T12:40:13.921Z,39040
2017-03-28T12:41:14.325Z,37728
2017-03-28T12:42:13.758Z,37120
2017-03-28T12:43:13.784Z,37280
2017-03-28T12:44:14.432Z,37184
2017-03-28T12:45:14.718Z,37664
2017-03-28T12:46:14.503Z,37888
2017-03-28T12:47:14.214Z,39488
2017-03-28T12:48:14.262Z,40864
2017-03-28T12:49:14.288Z,40608
2017-03-28T12:50:14.581Z,39584
2017-03-28T12:51:14.354Z,36032
2017-03-28T12:52:14.703Z,36192
2017-03-28T12:53:14.732Z,39072
2017-03-28T12:54:14.796Z,37888
2017-03-28T12:55:15.045Z,38592
2017-03-28T12:56:14.837Z,41056
2017-03-28T12:57:14.866Z,43552
2017-03-28T12:58:14.895Z,45792
2017-03-28T12:59:15.013Z,46368
2017-03-28T13:00:14.905Z,46400
2017-03-28T13:01:14.998Z,48736
2017-03-28T13:02:14.713Z,49568
2017-03-28T13:03:14.764Z,50560
2017-03-28T13:04:14.495Z,49824
2017-03-28T13:05:15.386Z,49536
2017-03-28T13:06:15.161Z,50368
2017-03-28T13:07:14.894Z,53024
2017-03-28T13:08:15.230Z,53824
2017-03-28T13:09:15.260Z,54048
2017-03-28T13:10:15.580Z,53376
2017-03-28T13:11:15.029Z,51040
2017-03-28T13:12:14.742Z,47136
2017-03-28T13:13:14.947Z,4572
2017-03-28T13:14:15.124Z,5608
2017-03-28T13:15:15.712Z,47712
2017-03-28T13:16:14.879Z,51296
2017-03-28T13:17:15.223Z,55744
2017-03-28T13:18:14.939Z,54816
2017-03-28T13:19:15.599Z,50016
2017-03-28T13:20:15.889Z,46944
2017-03-28T13:21:15.670Z,47936
2017-03-28T13:22:15.710Z,47168
2017-03-28T13:23:15.427Z,46592
2017-03-28T13:24:15.461Z,46496
2017-03-28T13:25:15.740Z,48640
2017-03-28T13:26:15.533Z,50528
2017-03-28T13:27:15.870Z,48832
2017-03-28T13:28:15.598Z,48192
2017-03-28T13:29:15.943Z,50880
2017-03-28T13:30:16.237Z,52288
2017-03-28T13:31:16.001Z,51808
2017-03-28T13:32:15.405Z,49952
2017-03-28T13:33:16.062Z,46400
2017-03-28T13:34:16.099Z,42176
2017-03-28T13:35:16.091Z,35808
2017-03-28T13:36:16.177Z,35520
2017-03-28T13:37:15.893Z,35872
2017-03-28T13:38:16.226Z,26112
2017-03-28T13:39:15.960Z,18624
2017-03-28T13:40:16.551Z,16788
2017-03-28T13:41:16.325Z,16108
2017-03-28T13:42:16.050Z,15412
2017-03-28T13:43:15.782Z,14876
2017-03-28T13:44:16.123Z,14300
2017-03-28T13:45:16.412Z,14084
2017-03-28T13:46:16.196Z,13888
2017-03-28T13:47:16.533Z,13596
2017-03-28T13:48:16.560Z,13240
2017-03-28T13:49:16.602Z,12868
2017-03-28T13:50:16.882Z,12700
2017-03-28T13:51:16.665Z,12452